sensor_id;sensor_type;location;lat;lon;timestamp;P1;durP1;ratioP1;P2;durP2;ratioP2
21743;SDS011;11034;48.556;9.342;2022-12-29T05:47:33;2.53;;;1.50;;
21743;SDS011;11034;48.556;9.342;2022-12-29T05:50:01;2.53;;;1.52;;
21743;SDS011;11034;48.556;9.342;2022-12-29T05:52:30;3.63;;;1.77;;
21743;SDS011;11034;48.556;9.342;2022-12-29T05:54:58;3.47;;;1.60;;
21743;SDS011;11034;48.556;9.342;2022-12-29T05:57:26;3.50;;;1.33;;
21743;SDS011;11034;48.556;9.342;2022-12-29T05:59:54;2.85;;;1.45;;
21743;SDS011;11034;48.556;9.342;2022-12-29T06:02:22;2.78;;;1.17;;
21743;SDS011;11034;48.556;9.342;2022-12-29T06:04:51;2.65;;;1.48;;
21743;SDS011;11034;48.556;9.342;2022-12-29T06:07:19;3.28;;;1.30;;
21743;SDS011;11034;48.556;9.342;2022-12-29T06:09:47;5.05;;;1.40;;
21743;SDS011;11034;48.556;9.342;2022-12-29T06:12:15;6.18;;;1.60;;
21743;SDS011;11034;48.556;9.342;2022-12-29T06:14:43;2.63;;;1.52;;
21743;SDS011;11034;48.556;9.342;2022-12-29T06:17:11;2.88;;;1.45;;
21743;SDS011;11034;48.556;9.342;2022-12-29T06:19:39;2.08;;;1.35;;
21743;SDS011;11034;48.556;9.342;2022-12-29T06:22:08;4.20;;;1.30;;
21743;SDS011;11034;48.556;9.342;2022-12-29T06:24:38;5.00;;;1.42;;
21743;SDS011;11034;48.556;9.342;2022-12-29T06:27:06;2.45;;;1.20;;
21743;SDS011;11034;48.556;9.342;2022-12-29T06:29:34;3.60;;;1.58;;
21743;SDS011;11034;48.556;9.342;2022-12-29T06:32:03;3.05;;;1.73;;
21743;SDS011;11034;48.556;9.342;2022-12-29T06:34:31;2.05;;;1.27;;
21743;SDS011;11034;48.556;9.342;2022-12-29T06:36:59;2.25;;;1.30;;
21743;SDS011;11034;48.556;9.342;2022-12-29T06:39:28;3.38;;;1.20;;
21743;SDS011;11034;48.556;9.342;2022-12-29T06:41:56;2.67;;;1.27;;
21743;SDS011;11034;48.556;9.342;2022-12-29T06:44:24;3.53;;;1.20;;
21743;SDS011;11034;48.556;9.342;2022-12-29T06:46:52;3.72;;;1.50;;
21743;SDS011;11034;48.556;9.342;2022-12-29T06:49:20;4.82;;;1.60;;
21743;SDS011;11034;48.556;9.342;2022-12-29T06:51:48;4.47;;;1.50;;
21743;SDS011;11034;48.556;9.342;2022-12-29T06:54:16;3.35;;;1.48;;
21743;SDS011;11034;48.556;9.342;2022-12-29T06:56:45;4.00;;;1.38;;
21743;SDS011;11034;48.556;9.342;2022-12-29T06:59:13;4.07;;;1.50;;
21743;SDS011;11034;48.556;9.342;2022-12-29T07:01:42;1.90;;;1.27;;
21743;SDS011;11034;48.556;9.342;2022-12-29T07:04:10;3.72;;;1.20;;
21743;SDS011;11034;48.556;9.342;2022-12-29T07:06:38;2.08;;;1.15;;
21743;SDS011;11034;48.556;9.342;2022-12-29T07:09:07;2.80;;;1.40;;
21743;SDS011;11034;48.556;9.342;2022-12-29T07:11:36;3.10;;;1.40;;
21743;SDS011;11034;48.556;9.342;2022-12-29T07:14:07;2.35;;;1.40;;
21743;SDS011;11034;48.556;9.342;2022-12-29T07:16:35;3.13;;;1.23;;
21743;SDS011;11034;48.556;9.342;2022-12-29T07:19:03;2.15;;;1.35;;
21743;SDS011;11034;48.556;9.342;2022-12-29T07:21:31;3.15;;;1.52;;
21743;SDS011;11034;48.556;9.342;2022-12-29T07:23:59;3.08;;;1.40;;
21743;SDS011;11034;48.556;9.342;2022-12-29T07:26:27;2.42;;;1.50;;
21743;SDS011;11034;48.556;9.342;2022-12-29T07:29:01;4.07;;;1.20;;
21743;SDS011;11034;48.556;9.342;2022-12-29T07:31:30;3.03;;;1.60;;
21743;SDS011;11034;48.556;9.342;2022-12-29T07:33:59;3.30;;;1.52;;
21743;SDS011;11034;48.556;9.342;2022-12-29T07:36:31;5.63;;;1.42;;
21743;SDS011;11034;48.556;9.342;2022-12-29T07:39:00;3.72;;;1.20;;
21743;SDS011;11034;48.556;9.342;2022-12-29T07:41:28;3.78;;;1.42;;
21743;SDS011;11034;48.556;9.342;2022-12-29T07:43:56;5.00;;;1.60;;
21743;SDS011;11034;48.556;9.342;2022-12-29T15:02:33;2.80;;;1.30;;
21743;SDS011;11034;48.556;9.342;2022-12-29T15:05:10;2.33;;;1.30;;
21743;SDS011;11034;48.556;9.342;2022-12-29T15:07:52;2.47;;;1.70;;
21743;SDS011;11034;48.556;9.342;2022-12-29T15:10:21;3.40;;;1.75;;
21743;SDS011;11034;48.556;9.342;2022-12-29T15:12:52;2.25;;;1.70;;
21743;SDS011;11034;48.556;9.342;2022-12-29T15:15:29;2.50;;;1.60;;
21743;SDS011;11034;48.556;9.342;2022-12-29T15:18:24;2.08;;;1.20;;
21743;SDS011;11034;48.556;9.342;2022-12-29T15:20:54;4.07;;;1.80;;
21743;SDS011;11034;48.556;9.342;2022-12-29T15:23:24;3.13;;;1.60;;
21743;SDS011;11034;48.556;9.342;2022-12-29T15:25:54;2.35;;;1.33;;
21743;SDS011;11034;48.556;9.342;2022-12-29T15:28:36;2.13;;;1.45;;
21743;SDS011;11034;48.556;9.342;2022-12-29T15:31:06;3.30;;;1.67;;
21743;SDS011;11034;48.556;9.342;2022-12-29T15:33:41;2.17;;;1.60;;
21743;SDS011;11034;48.556;9.342;2022-12-29T15:36:11;4.32;;;1.48;;
21743;SDS011;11034;48.556;9.342;2022-12-29T15:38:41;3.15;;;1.27;;
21743;SDS011;11034;48.556;9.342;2022-12-29T15:41:15;2.20;;;1.40;;
21743;SDS011;11034;48.556;9.342;2022-12-29T15:46:44;2.17;;;1.48;;
21743;SDS011;11034;48.556;9.342;2022-12-29T15:49:14;3.47;;;1.25;;
21743;SDS011;11034;48.556;9.342;2022-12-29T15:51:43;2.50;;;1.58;;
21743;SDS011;11034;48.556;9.342;2022-12-29T15:54:14;2.30;;;1.35;;
21743;SDS011;11034;48.556;9.342;2022-12-29T15:56:44;3.03;;;1.45;;
21743;SDS011;11034;48.556;9.342;2022-12-29T15:59:22;3.83;;;1.70;;
21743;SDS011;11034;48.556;9.342;2022-12-29T16:01:52;3.42;;;1.70;;
21743;SDS011;11034;48.556;9.342;2022-12-29T16:04:23;5.13;;;1.63;;
21743;SDS011;11034;48.556;9.342;2022-12-29T16:07:22;4.38;;;1.60;;
21743;SDS011;11034;48.556;9.342;2022-12-29T16:09:54;3.47;;;1.70;;
21743;SDS011;11034;48.556;9.342;2022-12-29T16:12:24;2.15;;;1.48;;
21743;SDS011;11034;48.556;9.342;2022-12-29T16:14:55;4.53;;;1.65;;
21743;SDS011;11034;48.556;9.342;2022-12-29T16:17:26;2.55;;;1.10;;
21743;SDS011;11034;48.556;9.342;2022-12-29T16:20:00;1.70;;;1.10;;
21743;SDS011;11034;48.556;9.342;2022-12-29T16:22:32;2.10;;;1.33;;
21743;SDS011;11034;48.556;9.342;2022-12-29T16:25:04;4.55;;;1.58;;
21743;SDS011;11034;48.556;9.342;2022-12-29T16:27:49;3.67;;;1.60;;
21743;SDS011;11034;48.556;9.342;2022-12-29T16:30:19;2.80;;;1.98;;
21743;SDS011;11034;48.556;9.342;2022-12-29T16:32:58;3.63;;;2.53;;
21743;SDS011;11034;48.556;9.342;2022-12-29T16:35:29;3.72;;;2.22;;
21743;SDS011;11034;48.556;9.342;2022-12-29T16:38:07;1.63;;;1.25;;
21743;SDS011;11034;48.556;9.342;2022-12-29T16:40:49;3.10;;;1.70;;
21743;SDS011;11034;48.556;9.342;2022-12-29T16:43:22;4.72;;;1.77;;
21743;SDS011;11034;48.556;9.342;2022-12-29T16:48:46;5.95;;;3.25;;
21743;SDS011;11034;48.556;9.342;2022-12-29T16:51:19;4.43;;;1.70;;
21743;SDS011;11034;48.556;9.342;2022-12-29T16:53:56;2.45;;;1.45;;
21743;SDS011;11034;48.556;9.342;2022-12-29T16:56:25;2.03;;;1.30;;
21743;SDS011;11034;48.556;9.342;2022-12-29T16:59:00;2.45;;;1.77;;
21743;SDS011;11034;48.556;9.342;2022-12-29T17:01:34;4.70;;;1.58;;
21743;SDS011;11034;48.556;9.342;2022-12-29T17:04:05;2.28;;;1.30;;
21743;SDS011;11034;48.556;9.342;2022-12-29T17:06:36;2.72;;;1.50;;
21743;SDS011;11034;48.556;9.342;2022-12-29T17:09:13;2.38;;;1.45;;
21743;SDS011;11034;48.556;9.342;2022-12-29T17:11:44;3.08;;;1.30;;
21743;SDS011;11034;48.556;9.342;2022-12-29T17:14:38;3.70;;;1.55;;
21743;SDS011;11034;48.556;9.342;2022-12-29T17:17:15;3.03;;;1.55;;
21743;SDS011;11034;48.556;9.342;2022-12-29T17:19:46;5.45;;;3.53;;
21743;SDS011;11034;48.556;9.342;2022-12-29T17:22:21;2.88;;;1.50;;
21743;SDS011;11034;48.556;9.342;2022-12-29T17:24:51;2.20;;;1.60;;
21743;SDS011;11034;48.556;9.342;2022-12-29T17:27:21;2.95;;;1.23;;
21743;SDS011;11034;48.556;9.342;2022-12-29T17:29:52;3.83;;;1.10;;
21743;SDS011;11034;48.556;9.342;2022-12-29T17:32:24;1.77;;;1.38;;
21743;SDS011;11034;48.556;9.342;2022-12-29T17:34:52;2.58;;;1.20;;
21743;SDS011;11034;48.556;9.342;2022-12-29T17:40:11;2.45;;;1.13;;
21743;SDS011;11034;48.556;9.342;2022-12-29T17:42:41;3.00;;;1.40;;
21743;SDS011;11034;48.556;9.342;2022-12-29T17:45:15;2.00;;;1.55;;
21743;SDS011;11034;48.556;9.342;2022-12-29T17:47:46;2.90;;;1.65;;
21743;SDS011;11034;48.556;9.342;2022-12-29T17:50:17;6.82;;;3.38;;
21743;SDS011;11034;48.556;9.342;2022-12-29T17:52:49;5.72;;;2.08;;
21743;SDS011;11034;48.556;9.342;2022-12-29T17:55:26;5.20;;;2.08;;
21743;SDS011;11034;48.556;9.342;2022-12-29T17:58:08;3.47;;;2.28;;
21743;SDS011;11034;48.556;9.342;2022-12-29T18:00:43;6.30;;;3.88;;
21743;SDS011;11034;48.556;9.342;2022-12-29T18:03:13;7.45;;;4.55;;
21743;SDS011;11034;48.556;9.342;2022-12-29T18:05:43;3.95;;;2.60;;
21743;SDS011;11034;48.556;9.342;2022-12-29T18:08:12;8.77;;;4.45;;
21743;SDS011;11034;48.556;9.342;2022-12-29T18:10:40;4.97;;;2.28;;
21743;SDS011;11034;48.556;9.342;2022-12-29T18:13:14;5.15;;;2.40;;
21743;SDS011;11034;48.556;9.342;2022-12-29T18:15:47;2.50;;;1.88;;
21743;SDS011;11034;48.556;9.342;2022-12-29T18:18:16;3.05;;;1.67;;
21743;SDS011;11034;48.556;9.342;2022-12-29T18:20:45;2.00;;;1.30;;
21743;SDS011;11034;48.556;9.342;2022-12-29T18:23:18;2.65;;;1.63;;
21743;SDS011;11034;48.556;9.342;2022-12-29T18:25:53;3.63;;;1.48;;
21743;SDS011;11034;48.556;9.342;2022-12-29T18:28:35;3.85;;;1.63;;
21743;SDS011;11034;48.556;9.342;2022-12-29T18:31:16;2.28;;;1.77;;
21743;SDS011;11034;48.556;9.342;2022-12-29T18:34:10;4.85;;;2.10;;
21743;SDS011;11034;48.556;9.342;2022-12-29T18:36:54;5.25;;;1.70;;
21743;SDS011;11034;48.556;9.342;2022-12-29T18:39:31;3.80;;;1.92;;
21743;SDS011;11034;48.556;9.342;2022-12-29T18:42:08;4.47;;;2.00;;
21743;SDS011;11034;48.556;9.342;2022-12-29T18:44:51;3.42;;;2.00;;
21743;SDS011;11034;48.556;9.342;2022-12-29T18:47:46;2.28;;;1.38;;
21743;SDS011;11034;48.556;9.342;2022-12-29T18:50:23;3.70;;;1.65;;
21743;SDS011;11034;48.556;9.342;2022-12-29T18:53:00;1.83;;;1.60;;
21743;SDS011;11034;48.556;9.342;2022-12-29T18:55:31;2.95;;;1.60;;
21743;SDS011;11034;48.556;9.342;2022-12-29T18:57:59;2.47;;;1.40;;
21743;SDS011;11034;48.556;9.342;2022-12-29T19:00:27;2.33;;;1.50;;
21743;SDS011;11034;48.556;9.342;2022-12-29T19:02:55;3.03;;;1.70;;
21743;SDS011;11034;48.556;9.342;2022-12-29T19:05:24;2.63;;;1.30;;
21743;SDS011;11034;48.556;9.342;2022-12-29T19:07:53;3.20;;;1.40;;
21743;SDS011;11034;48.556;9.342;2022-12-29T19:10:22;1.88;;;1.38;;
21743;SDS011;11034;48.556;9.342;2022-12-29T19:12:52;2.60;;;1.50;;
21743;SDS011;11034;48.556;9.342;2022-12-29T19:15:28;2.75;;;1.42;;
21743;SDS011;11034;48.556;9.342;2022-12-29T19:17:58;2.97;;;1.70;;
21743;SDS011;11034;48.556;9.342;2022-12-29T19:20:48;2.80;;;1.75;;
21743;SDS011;11034;48.556;9.342;2022-12-29T19:23:17;4.20;;;2.42;;
21743;SDS011;11034;48.556;9.342;2022-12-29T19:25:46;4.75;;;3.00;;
21743;SDS011;11034;48.556;9.342;2022-12-29T19:28:17;6.93;;;3.65;;
21743;SDS011;11034;48.556;9.342;2022-12-29T19:30:47;8.00;;;4.90;;
21743;SDS011;11034;48.556;9.342;2022-12-29T19:33:18;9.80;;;5.30;;
21743;SDS011;11034;48.556;9.342;2022-12-29T19:35:47;19.50;;;13.75;;
21743;SDS011;11034;48.556;9.342;2022-12-29T19:38:15;18.38;;;11.27;;
21743;SDS011;11034;48.556;9.342;2022-12-29T19:40:44;19.67;;;13.45;;
21743;SDS011;11034;48.556;9.342;2022-12-29T19:43:16;22.58;;;14.27;;
21743;SDS011;11034;48.556;9.342;2022-12-29T19:45:45;10.75;;;7.13;;
21743;SDS011;11034;48.556;9.342;2022-12-29T19:48:13;8.65;;;5.18;;
21743;SDS011;11034;48.556;9.342;2022-12-29T19:50:45;12.90;;;7.13;;
21743;SDS011;11034;48.556;9.342;2022-12-29T19:53:14;11.95;;;6.75;;
21743;SDS011;11034;48.556;9.342;2022-12-29T19:55:42;11.48;;;7.47;;
21743;SDS011;11034;48.556;9.342;2022-12-29T19:58:11;21.42;;;12.90;;
21743;SDS011;11034;48.556;9.342;2022-12-29T20:00:41;9.48;;;7.60;;
21743;SDS011;11034;48.556;9.342;2022-12-29T20:03:10;7.00;;;4.75;;
21743;SDS011;11034;48.556;9.342;2022-12-29T20:05:38;10.88;;;5.80;;
21743;SDS011;11034;48.556;9.342;2022-12-29T20:08:07;6.07;;;3.70;;
21743;SDS011;11034;48.556;9.342;2022-12-29T20:10:35;8.52;;;4.40;;
21743;SDS011;11034;48.556;9.342;2022-12-29T20:13:03;14.38;;;9.68;;
21743;SDS011;11034;48.556;9.342;2022-12-29T20:15:31;7.00;;;4.43;;
21743;SDS011;11034;48.556;9.342;2022-12-29T20:18:01;5.45;;;3.83;;
21743;SDS011;11034;48.556;9.342;2022-12-29T20:20:39;4.90;;;3.22;;
21743;SDS011;11034;48.556;9.342;2022-12-29T20:23:07;6.07;;;4.10;;
21743;SDS011;11034;48.556;9.342;2022-12-29T20:25:35;11.15;;;5.13;;
21743;SDS011;11034;48.556;9.342;2022-12-29T20:28:13;10.55;;;7.60;;
21743;SDS011;11034;48.556;9.342;2022-12-29T20:30:42;6.20;;;4.07;;
21743;SDS011;11034;48.556;9.342;2022-12-29T20:33:11;7.45;;;4.40;;
21743;SDS011;11034;48.556;9.342;2022-12-29T20:35:39;6.60;;;3.22;;
21743;SDS011;11034;48.556;9.342;2022-12-29T20:38:07;6.57;;;3.25;;
21743;SDS011;11034;48.556;9.342;2022-12-29T20:40:36;5.03;;;3.03;;
21743;SDS011;11034;48.556;9.342;2022-12-29T20:43:12;5.60;;;3.00;;
21743;SDS011;11034;48.556;9.342;2022-12-29T20:45:41;2.63;;;2.10;;
21743;SDS011;11034;48.556;9.342;2022-12-29T20:48:09;5.53;;;2.83;;
21743;SDS011;11034;48.556;9.342;2022-12-29T20:50:38;5.60;;;3.08;;
21743;SDS011;11034;48.556;9.342;2022-12-29T20:53:07;2.20;;;1.30;;
21743;SDS011;11034;48.556;9.342;2022-12-29T20:55:35;2.95;;;1.40;;
21743;SDS011;11034;48.556;9.342;2022-12-29T20:58:06;3.45;;;1.67;;
